Weather observations for the past three days for
Whiteville, Columbus County Municipal Airport
Metric (Imperial)
Date Time (edt) Wind (kph) Vis. (km) Weather Sky Cond. Temperature (ºC) Relative Humidity Wind Chill (°C) Heat Index (°C) Pressure Precipitation (cm)
Air Dwpt 6 hour altimeter (cm) sea level (mb) 1 hr 3 hr 6 hr
Max. Min.
02 18:55 S 9 16.09 Fair CLR 32 25 67% 39 76.33 0.0
02 18:35 S 7 16.09 Fair CLR 32 25 67% 39 76.33 0.0
02 18:15 S 9 16.09 A Few Clouds FEW050 33 25 63% 41 76.33 0.0
02 17:55 Vrbl 9 16.09 Fair CLR 34 24 56% 41 76.3 0.0
02 17:35 SE 7 16.09 Fair CLR 35 23 50% 41 76.3 0.0
02 17:15 SE 6 16.09 Fair CLR 36 22 44% 41 76.3 0.0
02 16:55 S 7 16.09 Fair CLR 35 22 47% 39 76.33 0.0
02 16:35 Vrbl 7 16.09 Fair CLR 35 22 47% 39 76.33 0.0
02 16:15 Vrbl 6 16.09 Fair CLR 35 23 50% 41 76.35 0.0
02 15:55 Vrbl 9 16.09 Fair CLR 35 23 50% 41 76.35 0.0
02 15:35 NW 6 16.09 Fair CLR 35 23 50% 41 76.38 0.0
02 15:15 W 6 16.09 Fair CLR 34 22 50% 38 76.38 0.0
02 14:55 SW 7 16.09 Fair CLR 34 22 50% 38 76.4 0.0
02 14:35 W 4 16.09 Fair CLR 35 22 47% 39 76.4 0.0
02 14:15 W 6 16.09 Fair CLR 34 23 53% 39 76.4 0.0
02 13:56 S 7 16.09 Fair CLR 34 23 53% 39 76.43 0.0
02 13:35 Vrbl 11 16.09 Fair CLR 34 24 56% 41 76.43 0.0
02 13:15 SW 7 16.09 Fair CLR 33 23 56% 38 76.45 0.0
02 12:55 W 7 16.09 Fair CLR 33 23 56% 38 76.45 0.0
02 12:35 W 11 16.09 Fair CLR 33 24 59% 39 76.45 0.0
02 12:15 W 7 16.09 Fair CLR 32 23 59% 37 76.48 0.0
02 11:55 Vrbl 7 16.09 Fair CLR 32 23 59% 37 76.48 0.0
02 11:35 SW 13 16.09 Fair CLR 31 23 62% 35 76.48 0.0
02 11:15 W 9 16.09 Fair CLR 31 23 62% 35 76.48 0.0
02 10:55 W 11 16.09 Fair CLR 31 23 62% 35 76.48 0.0
02 10:36 Vrbl 9 16.09 Fair CLR 30 22 62% 33 76.48 0.0
02 10:15 SW 9 16.09 Fair CLR 30 23 66% 34 76.48 0.0
02 09:55 SW 6 16.09 Fair CLR 29 23 70% 33 76.48 0.0
02 09:35 Vrbl 7 16.09 Fair CLR 28 23 74% 31 76.48 0.0
02 09:15 SW 9 16.09 Fair CLR 27 24 84% 30 76.5 0.0
02 08:55 W 7 16.09 Fair CLR 27 24 84% 30 76.5 0.0
02 08:35 SW 6 16.09 Fair CLR 26 24 89% 28 76.5 0.0
02 08:15 SW 6 16.09 Fair CLR 25 24 94% 26 76.53 0.0
02 07:55 SW 4 16.09 Fair CLR 24 24 24.3 22 100% 23 76.53 0.0
02 07:35 Vrbl 4 12.87 Fair CLR 24 23 94% 23 76.5 0.0
02 07:15 Calm 9.66 Fog/Mist CLR 23 23 100% 76.5 0.0
02 06:55 Vrbl 2 12.87 Fair CLR 22 22 100% 76.48 0.0
02 06:35 Calm 6.44 Fog/Mist CLR 22 22 100% 76.48 0.0
02 06:15 S 2 1.21 Fog/Mist VV005 22 22 100% 76.45 0.0
02 05:55 W 2 1.21 Fog/Mist VV005 22 22 100% 76.45 0.0
02 05:35 Calm 1.21 Fog/Mist VV005 22 22 100% 76.45 0.0
02 05:15 S 2 6.44 Fog/Mist CLR 23 23 100% 76.43 0.0
02 04:55 SW 2 1.21 Fog/Mist VV005 23 23 100% 76.43 0.0
02 04:35 SE 2 16.09 Fair CLR 23 23 100% 76.43 0.0
02 04:15 S 2 16.09 Fair CLR 23 23 100% 76.43 0.0
02 03:55 S 2 4.83 Fog/Mist FEW090 23 23 100% 76.43 0.0
02 03:35 SW 2 14.48 Partly Cloudy SCT090 23 23 100% 76.43 0.0
02 03:15 S 2 16.09 Fair CLR 23 23 100% 76.43 0.0
02 02:55 S 2 11.27 Fog/Mist CLR 23 23 100% 76.45 0.0
02 02:35 W 2 12.87 Fair CLR 23 23 100% 76.45 0.0
02 02:15 SW 2 14.48 Fair CLR 24 23 94% 23 76.45 0.0
02 01:55 SW 2 16.09 Fair CLR 24 24 28.4 23.7 100% 23 76.45 0.0
02 01:35 SW 4 16.09 Fair CLR 24 23 94% 23 76.45 0.0
02 01:15 S 4 16.09 Fair CLR 24 23 94% 23 76.45 0.0
02 00:55 SW 4 16.09 Fair CLR 24 23 94% 23 76.45 0.0
02 00:35 SW 6 16.09 Fair CLR 24 23 94% 23 76.43 0.0
02 00:15 SW 6 16.09 Fair CLR 25 23 89% 26 76.43 0.0
01 23:55 SW 4 16.09 Fair CLR 25 24 94% 26 76.4 0.0
01 23:35 S 6 16.09 Fair CLR 25 24 94% 26 76.4 0.0
01 23:15 S 4 16.09 Fair CLR 25 24 94% 26 76.4 0.0
01 22:55 SW 6 16.09 Fair CLR 25 24 94% 26 76.43 0.0
01 22:35 Vrbl 4 16.09 Fair CLR 26 24 89% 28 76.4 0.0
01 22:15 S 6 16.09 Fair CLR 26 24 89% 28 76.43 0.0
01 21:55 S 6 16.09 Fair CLR 26 24 89% 28 76.4 0.0
01 21:35 S 6 16.09 Fair CLR 26 24 89% 28 76.4 0.0
01 21:15 S 6 16.09 Fair CLR 27 24 84% 30 76.4 0.0
01 20:55 S 7 16.09 Fair CLR 27 24 84% 30 76.38 0.0
01 20:35 S 7 16.09 Fair CLR 27 24 84% 30 76.38 0.0
01 20:15 S 7 16.09 Fair CLR 28 24 79% 32 76.38 0.0
01 19:55 S 7 16.09 Fair CLR 28 25 34.4 28.4 84% 33 76.38 0.0
01 19:35 Vrbl 7 16.09 Fair CLR 29 25 79% 35 76.38 0.0
01 19:15 SE 9 16.09 Fair CLR 30 25 75% 36 76.35 0.0
01 18:55 S 9 16.09 Fair CLR 31 25 70% 38 76.38 0.0
01 18:35 S 7 16.09 Partly Cloudy SCT060 32 24 63% 38 76.35 0.0
01 18:15 SE 6 16.09 Partly Cloudy SCT060 33 22 52% 37 76.35 0.0
01 17:55 SE 7 16.09 Fair CLR 33 22 52% 37 76.35 0.0
01 17:35 SE 7 16.09 A Few Clouds FEW050 34 23 53% 39 76.35 0.0
01 17:15 SE 9 16.09 Partly Cloudy SCT050 34 22 50% 38 76.35 0.0
01 16:55 Vrbl 7 16.09 Partly Cloudy SCT050 34 22 50% 38 76.35 0.0
01 16:35 Vrbl 6 16.09 Partly Cloudy SCT050 34 22 50% 38 76.35 0.0
01 16:15 Vrbl 7 16.09 Partly Cloudy SCT050 34 22 50% 38 76.35 0.0
01 15:55 Vrbl 6 16.09 A Few Clouds FEW060 FEW070 34 22 50% 38 76.38 0.0
01 15:35 Vrbl 4 16.09 Mostly Cloudy FEW060 BKN070 33 22 52% 37 76.38 0.0
01 15:15 Vrbl 4 16.09 A Few Clouds FEW047 FEW060 34 22 50% 38 76.4 0.0
01 14:55 S 6 16.09 Mostly Cloudy BKN043 33 22 52% 37 76.43 0.0
01 14:35 SE 9 16.09 Mostly Cloudy BKN043 33 23 56% 38 76.43 0.0
01 14:15 Vrbl 2 16.09 A Few Clouds FEW065 33 23 56% 38 76.43 0.0
01 13:55 S 6 16.09 Partly Cloudy FEW040 FEW047 SCT075 33 22 33.7 23.1 52% 37 76.45 0.0
01 13:35 Vrbl 6 16.09 Partly Cloudy SCT048 SCT060 SCT075 33 23 56% 38 76.45 0.0
01 13:15 NE 6 16.09 A Few Clouds FEW047 33 23 56% 38 76.48 0.0
01 12:55 Vrbl 4 16.09 Fair CLR 32 23 59% 37 76.48 0.0
01 12:35 Vrbl 2 16.09 Fair CLR 32 23 59% 37 76.5 0.0
01 12:15 Vrbl 4 16.09 Fair CLR 31 23 62% 35 76.5 0.0
01 11:55 NW 7 16.09 Fair CLR 31 24 66% 37 76.53 0.0
01 11:35 NW 6 16.09 Fair CLR 30 24 70% 35 76.53 0.0
01 11:15 Vrbl 6 16.09 Fair CLR 30 24 70% 35 76.56 0.0
01 10:55 Vrbl 9 16.09 Fair CLR 30 24 70% 35 76.56 0.0
01 10:35 W 7 16.09 Fair CLR 29 24 74% 34 76.56 0.0
01 10:15 N 7 16.09 Fair CLR 28 24 79% 32 76.56 0.0
01 09:55 Vrbl 6 16.09 Fair CLR 27 24 84% 30 76.56 0.0
01 09:35 Vrbl 4 16.09 Fair CLR 26 24 89% 28 76.56 0.0
01 09:15 NW 6 16.09 Fair CLR 26 24 89% 28 76.56 0.0
01 08:55 W 6 16.09 Fair CLR 25 24 94% 26 76.56 0.0
01 08:35 Vrbl 2 16.09 Fair CLR 25 24 94% 26 76.56 0.0
01 08:15 SW 4 16.09 A Few Clouds FEW001 24 24 100% 23 76.56 0.0
01 07:55 Calm 2.01 Fog/Mist BKN001 23 23 23.3 21.9 100% 76.53 0.0
01 07:35 Calm 1.21 Fog/Mist OVC001 23 23 100% 76.5 0.0
01 07:15 Calm 4.02 Fog/Mist BKN001 23 22 94% 76.5 0.0
01 06:55 Calm 0.24 Fog VV000 23 22 94% 76.5 0.0
01 06:35 N 2 0.24 Fog VV000 23 22 94% 76.48 0.0
01 06:15 Calm 0.24 Fog OVC001 23 22 94% 76.48 0.0
01 05:55 SE 2 12.87 Overcast OVC001 23 22 94% 76.45 0.0
01 05:35 N 2 1.61 Fog/Mist OVC001 22 22 100% 76.45 0.0
01 05:15 SE 4 1.61 Fog/Mist CLR 22 22 100% 76.45 0.0
01 04:55 SE 2 6.44 Fog/Mist CLR 22 22 100% 76.45 0.0
01 04:35 Calm 9.66 Fog/Mist CLR 23 22 94% 76.45 0.0
01 04:15 W 2 1.21 Fog/Mist SCT001 22 22 100% 76.48 0.0
01 03:55 SW 2 1.61 Fog/Mist CLR 22 22 100% 76.48 0.0
01 03:35 Calm 2.01 Fog/Mist CLR 23 23 100% 76.48 0.0
01 03:15 S 2 3.22 Fog/Mist CLR 23 22 94% 76.5 0.0
01 02:55 Calm 2.41 Fog/Mist CLR 23 23 100% 76.5 0.0
01 02:35 W 2 6.44 Fog/Mist CLR 23 23 100% 76.5 0.0
01 02:15 W 2 8.05 Fog/Mist CLR 23 23 100% 76.5 0.0
01 01:55 W 2 16.09 Fair CLR 23 23 27.7 22.7 100% 76.5 0.0
01 01:35 SE 2 4.83 Fog/Mist CLR 23 23 100% 76.53 0.0
01 01:15 NE 2 14.48 Fair CLR 24 23 94% 23 76.53 0.0
01 00:55 SE 2 16.09 Fair CLR 24 23 94% 23 76.53 0.0
01 00:35 Calm 16.09 Fair CLR 24 24 100% 23 76.53 0.0
01 00:15 SE 2 14.48 Fair CLR 24 24 100% 23 76.53 0.0
31 23:55 SW 2 16.09 Fair CLR 24 24 100% 23 76.53 0.0
31 23:35 NE 2 16.09 Fair CLR 24 24 100% 23 76.53 0.0
31 23:15 Vrbl 2 16.09 Fair CLR 25 24 94% 26 76.53 0.0
31 22:55 Vrbl 2 16.09 Fair CLR 25 24 94% 26 76.53 0.0
31 22:35 S 2 16.09 Fair CLR 25 24 94% 26 76.53 0.0
31 22:15 S 4 16.09 Fair CLR 25 24 94% 26 76.53 0.0
31 21:55 S 4 16.09 Fair CLR 26 24 89% 28 76.53 0.0
31 21:35 S 4 16.09 Fair CLR 26 24 89% 28 76.5 0.0
31 21:15 S 4 16.09 Fair CLR 26 24 89% 28 76.5 0.0
31 20:55 S 6 16.09 Fair CLR 26 24 89% 28 76.48 0.0
31 20:36 S 6 16.09 Fair CLR 27 24 84% 30 76.48 0.0
31 20:15 S 6 16.09 Fair CLR 27 24 84% 30 76.45 0.0
31 19:35 S 9 16.09 Fair CLR 28 25 84% 33 76.43 0.0
31 19:15 Vrbl 7 16.09 Fair CLR 29 25 79% 35 76.45 0.0
31 18:55 S 13 16.09 Fair CLR 29 25 79% 35 76.45 0.0
31 18:35 SE 15 16.09 Fair CLR 32 24 63% 38 76.43 0.0
31 18:15 E 6 16.09 Fair CLR 33 21 49% 36 76.43 0.0
31 17:55 NE 9 16.09 Fair CLR 32 21 52% 35 76.43 0.0
31 17:35 N 6 16.09 Fair CLR 33 22 52% 37 76.43 0.0
31 17:15 Vrbl 4 16.09 Fair CLR 32 22 55% 36 76.43 0.0
31 16:55 Vrbl 7 16.09 A Few Clouds FEW047 33 22 52% 37 76.43 0.0
31 16:35 N 6 16.09 Fair CLR 32 22 55% 36 76.43 0.0
31 16:15 E 7 16.09 Fair CLR 33 22 52% 37 76.45 0.0
31 15:55 NW 7 16.09 Fair CLR 32 22 55% 36 76.45 0.0
31 15:35 Vrbl 6 16.09 Partly Cloudy SCT040 32 23 59% 37 76.45 0.0
31 15:15 Vrbl 4 16.09 Partly Cloudy SCT040 32 23 59% 37 76.48 0.0
31 14:55 Vrbl 4 16.09 A Few Clouds FEW041 32 22 55% 36 76.5 0.0
31 14:35 E 6 16.09 A Few Clouds FEW043 32 23 59% 37 76.53 0.0
31 14:15 Vrbl 2 16.09 Fair CLR 32 23 59% 37 76.56 0.0
31 13:55 Vrbl 4 16.09 Fair CLR 31 22 31.6 22.9 59% 35 76.58 0.0
31 13:35 Vrbl 4 16.09 Fair CLR 31 23 62% 35 76.58 0.0
31 13:15 E 6 16.09 Fair CLR 31 23 62% 35 76.61 0.0
31 12:55 NE 9 16.09 A Few Clouds FEW031 31 23 62% 35 76.61 0.0
31 12:35 Vrbl 7 16.09 Partly Cloudy FEW029 SCT041 30 23 66% 34 76.61 0.0
31 12:15 E 7 16.09 Partly Cloudy FEW027 SCT032 30 23 66% 34 76.63 0.0
31 11:55 N 9 16.09 Partly Cloudy SCT031 30 23 66% 34 76.63 0.0
31 11:35 E 7 16.09 A Few Clouds FEW021 29 23 70% 33 76.63 0.0
31 11:16 N 9 16.09 Partly Cloudy SCT021 29 24 74% 34 76.61 0.0
31 10:55 NE 7 16.09 Fair CLR 28 24 79% 32 76.63 0.0
31 10:35 E 7 16.09 Fair CLR 28 23 74% 31 76.63 0.0
31 10:15 E 6 16.09 A Few Clouds FEW009 28 24 79% 32 76.61 0.0
31 09:55 Vrbl 4 16.09 Partly Cloudy SCT007 27 24 84% 30 76.61 0.0
31 09:35 E 6 16.09 Mostly Cloudy BKN007 26 24 89% 28 76.61 0.0
31 09:15 NE 4 16.09 Mostly Cloudy BKN005 25 24 94% 26 76.61 0.0
31 08:55 NE 4 16.09 A Few Clouds FEW005 25 24 94% 26 76.61 0.0
31 08:35 NE 6 16.09 Fair CLR 24 23 94% 23 76.61 0.0
31 08:15 NE 4 11.27 Fair CLR 23 23 100% 76.58 0.0
31 07:55 NE 2 8.05 Fog/Mist CLR 23 23 23.5 22.1 100% 76.58 0.0
31 07:35 N 2 4.83 Fog/Mist CLR 23 22 94% 76.56 0.0
31 07:15 NE 4 6.44 Fog/Mist CLR 22 22 100% 76.56 0.0
31 06:55 NW 2 3.22 Fog/Mist SCT003 22 22 100% 76.56 0.0
31 06:35 Calm 9.66 Fog/Mist FEW003 23 22 94% 76.56 0.0
31 06:15 N 4 12.87 A Few Clouds FEW003 23 22 94% 76.56 0.0
31 05:55 N 4 12.87 Fair CLR 23 22 94% 76.56 0.0
31 05:35 N 6 12.87 A Few Clouds FEW002 23 22 94% 76.56 0.0
31 05:15 Calm 11.27 Partly Cloudy SCT002 23 23 100% 76.53 0.0
31 04:55 N 4 12.87 A Few Clouds FEW002 23 23 100% 76.53 0.0
31 04:35 NE 6 9.66 Fog/Mist CLR 23 23 100% 76.5 0.0
31 04:15 NE 4 8.05 Fog/Mist CLR 23 22 94% 76.5 0.0
31 03:56 NW 2 11.27 Fair CLR 23 23 100% 76.5 0.0
31 03:35 N 4 8.05 Fog/Mist CLR 23 23 100% 76.53 0.0
31 03:15 NE 4 11.27 Fog/Mist FEW002 23 23 100% 76.53 0.0
31 02:55 N 6 12.87 A Few Clouds FEW002 23 23 100% 76.53 0.0
31 02:35 NE 2 9.66 Fog/Mist CLR 23 23 100% 76.56 0.0
31 02:15 S 2 12.87 Fair CLR 23 23 100% 76.56 0.0
31 01:55 Calm 14.48 Fair CLR 23 23 25.1 23.2 100% 76.58 0.0
31 01:35 SE 2 16.09 Fair CLR 24 23 94% 23 76.61 0.0
31 01:15 SE 4 16.09 Fair CLR 23 23 100% 76.61 0.0
31 00:55 E 4 11.27 Fair CLR 23 23 100% 76.61 0.0
31 00:35 NE 4 16.09 Fair CLR 23 23 100% 76.63 0.0
31 00:15 E 4 14.48 Fair CLR 23 23 100% 76.63 0.0
30 23:55 E 4 14.48 Fair CLR 24 23 94% 23 76.61 0.0
30 23:35 NE 6 16.09 Fair CLR 24 23 94% 23 76.63 0.0
30 23:15 E 4 14.48 Fair CLR 24 23 94% 23 76.63 0.0
30 22:55 NE 4 14.48 Fair CLR 24 23 94% 23 76.61 0.0
30 22:35 NE 4 16.09 Fair CLR 23 23 100% 76.61 0.0
30 22:15 E 2 14.48 Fair CLR 24 23 94% 23 76.61 0.0
30 21:55 S 4 12.87 Fair CLR 23 23 100% 76.61 0.0
30 21:35 Vrbl 2 16.09 Fair CLR 24 24 100% 23 76.58 0.0
30 21:15 Calm 16.09 Fair CLR 24 23 94% 23 76.58 0.0
30 20:55 S 2 16.09 Fair CLR 24 24 100% 23 76.58 0.0
30 20:35 NE 4 16.09 Fair CLR 24 24 100% 23 76.58 0.0
30 20:15 NE 6 16.09 Fair CLR 25 24 94% 26 76.58 0.0
30 19:55 NE 6 16.09 Fair CLR 25 24 30.8 25.1 94% 26 76.56 0.0
30 19:35 E 6 16.09 Fair CLR 25 24 94% 26 76.56 0.0
30 19:15 NE 4 16.09 Fair CLR 26 24 89% 28 76.56 0.0
Date Time (edt) Wind (kph) Vis. (km) Weather Sky Cond. Air Dwpt Max. Min. Relative Humidity Wind Chill (°C) Heat Index (°C) altimeter (cm) sea level (mb) 1 hr 3 hr 6 hr
6 hour
Temperature (ºC) Pressure Precipitation (cm)